createdAt,value
2019-05-11T00:00:17.830Z,85.25
2019-05-11T00:01:18.260Z,84.97
2019-05-11T00:02:18.688Z,84.78
2019-05-11T00:03:19.119Z,83.44
2019-05-11T00:04:19.542Z,84.30
2019-05-11T00:05:19.983Z,83.64
2019-05-11T00:06:20.393Z,84.40
2019-05-11T00:07:20.858Z,85.06
2019-05-11T00:08:21.258Z,86.21
2019-05-11T00:09:21.686Z,85.93
2019-05-11T00:10:23.634Z,85.64
2019-05-11T00:11:22.538Z,86.11
2019-05-11T00:12:22.981Z,84.30
2019-05-11T00:13:23.393Z,84.59
2019-05-11T00:14:23.828Z,83.92
2019-05-11T00:15:24.266Z,82.20
2019-05-11T00:16:24.688Z,80.39
2019-05-11T00:17:25.117Z,81.82
2019-05-11T00:18:25.548Z,81.15
2019-05-11T00:19:25.979Z,81.54
2019-05-11T00:20:26.399Z,82.49
2019-05-11T00:21:26.874Z,82.68
2019-05-11T00:22:27.261Z,83.35
2019-05-11T00:23:27.688Z,83.73
2019-05-11T00:24:29.640Z,83.54
2019-05-11T00:25:28.586Z,81.92
2019-05-11T00:26:28.971Z,80.96
2019-05-11T00:27:29.403Z,79.53
2019-05-11T00:28:29.835Z,79.15
2019-05-11T00:29:30.291Z,78.83
2019-05-11T00:30:30.678Z,78.86
2019-05-11T00:31:31.115Z,78.86
2019-05-11T00:32:31.556Z,78.73
2019-05-11T00:33:31.975Z,78.49
2019-05-11T00:34:32.402Z,78.77
2019-05-11T00:35:32.829Z,77.40
2019-05-11T00:36:33.255Z,75.78
2019-05-11T00:37:33.694Z,75.30
2019-05-11T00:38:34.117Z,75.40
2019-05-11T00:39:34.544Z,75.68
2019-05-11T00:40:34.965Z,75.01
2019-05-11T00:41:35.404Z,75.20
2019-05-11T00:42:35.843Z,76.16
2019-05-11T00:43:36.252Z,77.44
2019-05-11T00:44:36.698Z,75.91
2019-05-11T00:45:37.108Z,75.43
2019-05-11T00:46:37.543Z,75.59
2019-05-11T00:47:37.974Z,75.20
2019-05-11T00:48:38.402Z,74.44
2019-05-11T00:49:38.827Z,74.06
2019-05-11T00:50:40.034Z,73.96
2019-05-11T00:51:39.689Z,72.06
2019-05-11T00:52:40.122Z,71.01
2019-05-11T00:53:40.537Z,70.92
2019-05-11T00:54:40.970Z,70.82
2019-05-11T00:55:41.397Z,70.63
2019-05-11T00:56:41.831Z,69.39
2019-05-11T00:57:42.249Z,68.53
2019-05-11T00:58:42.680Z,67.64
2019-05-11T00:59:43.112Z,67.39
2019-05-11T01:00:43.534Z,67.86
2019-05-11T01:01:43.967Z,67.58
2019-05-11T01:02:44.394Z,66.72
2019-05-11T01:03:44.820Z,66.91
2019-05-11T01:04:45.283Z,65.73
2019-05-11T01:05:45.681Z,66.05
2019-05-11T01:06:46.138Z,65.55
2019-05-11T01:07:46.532Z,65.36
2019-05-11T01:08:46.956Z,65.00
2019-05-11T01:09:47.406Z,64.69
2019-05-11T01:10:47.822Z,63.83
2019-05-11T01:11:48.253Z,64.50
2019-05-11T01:12:48.683Z,64.78
2019-05-11T01:13:49.105Z,64.69
2019-05-11T01:14:49.532Z,63.67
2019-05-11T01:15:49.964Z,63.26
2019-05-11T01:16:50.387Z,62.40
2019-05-11T01:17:50.814Z,62.02
2019-05-11T01:18:51.246Z,60.59
2019-05-11T01:19:51.676Z,60.59
2019-05-11T01:20:52.103Z,60.59
2019-05-11T01:21:52.521Z,60.11
2019-05-11T01:22:52.960Z,59.35
2019-05-11T01:23:53.389Z,58.78
2019-05-11T01:24:53.809Z,58.30
2019-05-11T01:25:54.237Z,57.54
2019-05-11T01:26:54.668Z,56.49
2019-05-11T01:27:55.098Z,56.11
2019-05-11T01:28:55.521Z,55.92
2019-05-11T01:29:55.957Z,55.54
2019-05-11T01:30:56.373Z,54.59
2019-05-11T01:31:56.807Z,53.99
2019-05-11T01:32:57.236Z,53.54
2019-05-11T01:33:57.661Z,52.37
2019-05-11T01:34:58.087Z,51.42
2019-05-11T01:35:58.661Z,50.37
2019-05-11T01:36:58.950Z,49.90
2019-05-11T01:37:59.380Z,49.90
2019-05-11T01:38:59.799Z,49.71
2019-05-11T01:40:00.229Z,49.99
2019-05-11T01:41:00.655Z,49.13
2019-05-11T01:42:01.084Z,49.51
2019-05-11T01:43:01.532Z,49.71
2019-05-11T01:44:01.938Z,49.42
2019-05-11T01:45:02.362Z,48.66
2019-05-11T01:46:02.799Z,49.04
2019-05-11T01:47:03.234Z,48.47
2019-05-11T01:48:03.644Z,47.80
2019-05-11T01:49:04.071Z,47.04
2019-05-11T01:50:04.501Z,47.13
2019-05-11T01:51:04.935Z,46.56
2019-05-11T01:52:05.356Z,46.18
2019-05-11T01:53:05.793Z,45.99
2019-05-11T01:54:06.208Z,45.80
2019-05-11T01:55:06.639Z,45.61
2019-05-11T01:56:07.063Z,45.61
2019-05-11T01:57:07.492Z,45.42
2019-05-11T01:58:07.915Z,45.51
2019-05-11T01:59:08.348Z,44.85
2019-05-11T02:00:08.770Z,44.18
2019-05-11T02:01:09.202Z,43.23
2019-05-11T02:02:09.625Z,43.04
2019-05-11T02:03:10.048Z,42.85
2019-05-11T02:04:10.490Z,42.76
2019-05-11T02:05:10.907Z,42.66
2019-05-11T02:06:11.336Z,41.23
2019-05-11T02:07:11.761Z,40.94
2019-05-11T02:08:12.194Z,41.02
2019-05-11T02:09:12.617Z,39.90
2019-05-11T02:10:13.055Z,39.14
2019-05-11T02:11:15.720Z,38.73
2019-05-11T02:12:13.899Z,39.14
2019-05-11T02:13:14.328Z,38.07
2019-05-11T02:14:14.753Z,37.69
2019-05-11T02:15:15.179Z,36.07
2019-05-11T02:16:15.605Z,36.55
2019-05-11T02:17:16.035Z,36.64
2019-05-11T02:18:16.459Z,35.40
2019-05-11T02:19:16.881Z,35.31
2019-05-11T02:20:17.315Z,34.26
2019-05-11T02:21:17.743Z,34.17
2019-05-11T02:22:18.163Z,34.26
2019-05-11T02:23:18.595Z,34.36
2019-05-11T02:24:19.024Z,34.26
2019-05-11T02:25:19.442Z,34.55
2019-05-11T02:26:19.875Z,34.74
2019-05-11T02:27:20.296Z,34.83
2019-05-11T02:28:20.726Z,34.45
2019-05-11T02:29:21.149Z,35.02
2019-05-11T02:30:21.586Z,35.78
2019-05-11T02:31:22.005Z,35.02
2019-05-11T02:32:22.432Z,35.21
2019-05-11T02:33:22.863Z,34.83
2019-05-11T02:34:23.285Z,34.66
2019-05-11T02:35:23.711Z,34.36
2019-05-11T02:36:24.137Z,34.26
2019-05-11T02:37:24.564Z,33.88
2019-05-11T02:38:24.994Z,34.36
2019-05-11T02:39:25.415Z,34.83
2019-05-11T02:40:25.865Z,34.92
2019-05-11T02:41:36.501Z,35.21
2019-05-11T02:42:26.805Z,34.83
2019-05-11T02:43:27.123Z,34.83
2019-05-11T02:44:27.588Z,34.55
2019-05-11T02:45:27.980Z,34.36
2019-05-11T02:46:28.406Z,34.17
2019-05-11T02:47:28.842Z,32.93
2019-05-11T02:48:29.259Z,33.03
2019-05-11T02:49:29.685Z,31.69
2019-05-11T02:50:30.106Z,31.79
2019-05-11T02:51:30.542Z,31.12
2019-05-11T02:52:30.979Z,30.65
2019-05-11T02:53:31.391Z,30.93
2019-05-11T02:54:31.819Z,31.21
2019-05-11T02:55:32.245Z,31.98
2019-05-11T02:56:32.678Z,32.45
2019-05-11T02:57:33.102Z,33.03
2019-05-11T02:58:33.527Z,34.64
2019-05-11T02:59:34.000Z,35.33
2019-05-11T03:00:34.385Z,37.12
2019-05-11T03:01:34.802Z,38.66
2019-05-11T03:02:35.286Z,39.32
2019-05-11T03:03:35.662Z,39.51
2019-05-11T03:04:36.100Z,39.90
2019-05-11T03:05:36.543Z,39.61
2019-05-11T03:06:36.949Z,40.47
2019-05-11T03:07:37.365Z,41.23
2019-05-11T03:08:37.791Z,42.47
2019-05-11T03:09:38.219Z,43.04
2019-05-11T03:10:38.645Z,43.71
2019-05-11T03:11:54.225Z,44.18
2019-05-11T03:12:39.507Z,42.85
2019-05-11T03:13:39.931Z,42.85
2019-05-11T03:14:40.353Z,44.18
2019-05-11T03:15:40.785Z,44.46
2019-05-11T03:16:41.205Z,44.75
2019-05-11T03:17:41.635Z,43.71
2019-05-11T03:18:42.061Z,44.56
2019-05-11T03:19:42.488Z,44.75
2019-05-11T03:20:42.912Z,45.51
2019-05-11T03:21:43.343Z,45.80
2019-05-11T03:22:43.765Z,47.04
2019-05-11T03:23:44.196Z,47.71
2019-05-11T03:24:44.625Z,46.47
2019-05-11T03:25:45.043Z,47.89
2019-05-11T03:26:45.488Z,47.89
2019-05-11T03:27:45.910Z,46.56
2019-05-11T03:28:46.338Z,45.99
2019-05-11T03:29:46.759Z,47.04
2019-05-11T03:30:47.214Z,46.66
2019-05-11T03:31:47.610Z,45.89
2019-05-11T03:32:48.043Z,45.61
2019-05-11T03:33:48.470Z,45.70
2019-05-11T03:34:48.889Z,46.56
2019-05-11T03:35:49.316Z,48.56
2019-05-11T03:36:49.745Z,45.99
2019-05-11T03:37:50.282Z,46.66
2019-05-11T03:38:50.596Z,47.23
2019-05-11T03:39:51.023Z,47.89
2019-05-11T03:40:51.450Z,47.13
2019-05-11T03:41:51.876Z,46.94
2019-05-11T03:42:52.314Z,46.47
2019-05-11T03:43:52.732Z,46.56
2019-05-11T03:44:53.160Z,46.47
2019-05-11T03:45:53.587Z,46.47
2019-05-11T03:46:54.013Z,47.13
2019-05-11T03:47:54.443Z,46.75
2019-05-11T03:48:54.869Z,47.13
2019-05-11T03:49:55.294Z,47.52
2019-05-11T03:50:55.723Z,48.37
2019-05-11T03:51:56.159Z,49.32
2019-05-11T03:52:56.580Z,50.30
2019-05-11T03:53:57.002Z,50.18
2019-05-11T03:54:57.435Z,49.99
2019-05-11T03:55:57.860Z,50.49
2019-05-11T03:56:58.287Z,50.75
2019-05-11T03:57:58.712Z,51.54
2019-05-11T03:58:59.140Z,52.97
2019-05-11T03:59:59.566Z,53.83
2019-05-11T04:00:59.998Z,53.80
2019-05-11T04:02:00.421Z,52.84
2019-05-11T04:03:00.853Z,52.56
2019-05-11T04:04:01.275Z,52.56
2019-05-11T04:05:01.729Z,52.75
2019-05-11T04:06:02.130Z,53.06
2019-05-11T04:07:02.576Z,53.32
2019-05-11T04:08:03.099Z,52.59
2019-05-11T04:09:03.416Z,52.09
2019-05-11T04:10:03.833Z,52.20
2019-05-11T04:11:04.288Z,52.09
2019-05-11T04:12:04.693Z,51.80
2019-05-11T04:13:05.122Z,51.51
2019-05-11T04:14:05.549Z,51.42
2019-05-11T04:15:06.049Z,51.14
2019-05-11T04:16:06.400Z,51.42
2019-05-11T04:17:06.836Z,51.51
2019-05-11T04:18:07.382Z,50.75
2019-05-11T04:19:07.692Z,50.46
2019-05-11T04:20:08.107Z,49.61
2019-05-11T04:21:08.537Z,49.23
2019-05-11T04:22:08.964Z,49.04
2019-05-11T04:23:09.390Z,48.18
2019-05-11T04:24:09.824Z,47.82
2019-05-11T04:25:10.248Z,48.68
2019-05-11T04:26:10.677Z,49.73
2019-05-11T04:27:11.098Z,51.16
2019-05-11T04:28:11.538Z,52.49
2019-05-11T04:29:11.979Z,53.25
2019-05-11T04:30:12.385Z,55.92
2019-05-11T04:31:12.809Z,57.82
2019-05-11T04:32:13.239Z,58.69
2019-05-11T04:33:13.665Z,57.35
2019-05-11T04:34:14.089Z,57.64
2019-05-11T04:35:14.521Z,59.45
2019-05-11T04:36:14.952Z,59.06
2019-05-11T04:37:15.369Z,59.26
2019-05-11T04:38:15.799Z,61.73
2019-05-11T04:39:16.231Z,62.02
2019-05-11T04:40:16.656Z,59.35
2019-05-11T04:41:17.079Z,58.30
2019-05-11T04:42:17.512Z,58.40
2019-05-11T04:43:17.947Z,59.16
2019-05-11T04:44:18.363Z,59.35
2019-05-11T04:45:18.795Z,59.16
2019-05-11T04:46:19.227Z,60.21
2019-05-11T04:47:19.647Z,59.74
2019-05-11T04:48:20.072Z,60.02
2019-05-11T04:49:20.501Z,57.73
2019-05-11T04:50:21.009Z,57.45
2019-05-11T04:51:21.359Z,54.39
2019-05-11T04:52:21.796Z,52.49
2019-05-11T04:53:22.215Z,53.54
2019-05-11T04:54:22.638Z,56.11
2019-05-11T04:55:23.067Z,54.11
2019-05-11T04:56:23.497Z,55.26
2019-05-11T04:57:23.921Z,55.26
2019-05-11T04:58:24.347Z,56.30
2019-05-11T04:59:24.785Z,56.02
2019-05-11T05:00:25.205Z,56.49
2019-05-11T05:01:25.637Z,59.28
2019-05-11T05:02:27.352Z,61.86
2019-05-11T05:03:39.707Z,63.39
2019-05-11T05:04:26.929Z,63.96
2019-05-11T05:05:27.348Z,65.96
2019-05-11T05:06:27.774Z,67.58
2019-05-11T05:07:28.207Z,66.63
2019-05-11T05:08:28.642Z,64.05
2019-05-11T05:09:29.208Z,64.34
2019-05-11T05:10:29.486Z,62.81
2019-05-11T05:11:30.616Z,60.69
2019-05-11T05:12:30.338Z,59.92
2019-05-11T05:13:31.485Z,61.48
2019-05-11T05:14:31.202Z,63.29
2019-05-11T05:15:31.630Z,64.15
2019-05-11T05:16:32.056Z,65.04
2019-05-11T05:17:32.485Z,67.42
2019-05-11T05:18:32.914Z,70.67
2019-05-11T05:19:33.342Z,70.67
2019-05-11T05:20:33.770Z,71.52
2019-05-11T05:21:34.197Z,72.09
2019-05-11T05:22:34.627Z,75.72
2019-05-11T05:23:35.058Z,75.53
2019-05-11T05:24:35.489Z,74.77
2019-05-11T05:25:35.915Z,74.96
2019-05-11T05:26:36.346Z,74.10
2019-05-11T05:27:36.778Z,74.19
2019-05-11T05:28:37.232Z,74.96
2019-05-11T05:29:37.634Z,74.77
2019-05-11T05:30:38.064Z,75.18
2019-05-11T05:31:38.501Z,76.90
2019-05-11T05:32:38.923Z,77.76
2019-05-11T05:33:39.348Z,78.43
2019-05-11T05:34:39.780Z,78.91
2019-05-11T05:35:40.220Z,79.19
2019-05-11T05:36:40.657Z,78.81
2019-05-11T05:37:41.073Z,78.01
2019-05-11T05:38:41.495Z,77.76
2019-05-11T05:39:41.923Z,77.67
2019-05-11T05:40:42.364Z,76.14
2019-05-11T05:41:42.796Z,77.76
2019-05-11T05:42:43.216Z,78.52
2019-05-11T05:43:43.647Z,80.81
2019-05-11T05:44:44.071Z,82.09
2019-05-11T05:45:44.554Z,81.81
2019-05-11T05:46:44.942Z,82.57
2019-05-11T05:47:45.363Z,85.05
2019-05-11T05:48:45.795Z,85.77
2019-05-11T05:49:46.236Z,86.53
2019-05-11T05:50:46.675Z,87.53
2019-05-11T05:51:47.090Z,88.96
2019-05-11T05:52:47.528Z,90.30
2019-05-11T05:53:48.010Z,89.92
2019-05-11T05:54:48.385Z,91.06
2019-05-11T05:55:48.818Z,91.21
2019-05-11T05:56:49.244Z,91.40
2019-05-11T05:57:49.698Z,91.40
2019-05-11T05:58:50.110Z,90.25
2019-05-11T05:59:50.534Z,90.35
2019-05-11T06:00:50.974Z,90.54
2019-05-11T06:01:51.401Z,89.78
2019-05-11T06:02:51.870Z,90.35
2019-05-11T06:03:52.268Z,91.16
2019-05-11T06:04:52.694Z,92.02
2019-05-11T06:05:53.137Z,92.50
2019-05-11T06:06:53.559Z,93.36
2019-05-11T06:07:53.994Z,92.97
2019-05-11T06:08:54.425Z,92.40
2019-05-11T06:09:54.862Z,93.31
2019-05-11T06:10:55.293Z,92.64
2019-05-11T06:11:55.721Z,92.26
2019-05-11T06:12:56.151Z,92.07
2019-05-11T06:13:56.588Z,93.12
2019-05-11T06:14:57.016Z,93.12
2019-05-11T06:15:57.443Z,93.12
2019-05-11T06:16:57.880Z,93.65
2019-05-11T06:18:00.419Z,93.65
2019-05-11T06:18:58.740Z,94.41
2019-05-11T06:19:59.172Z,94.60
2019-05-11T06:20:59.607Z,94.41
2019-05-11T06:22:00.036Z,94.60
2019-05-11T06:23:00.468Z,94.12
2019-05-11T06:24:07.115Z,94.65
2019-05-11T06:25:01.377Z,94.84
2019-05-11T06:26:01.781Z,95.75
2019-05-11T06:27:02.202Z,97.08
2019-05-11T06:28:02.643Z,97.13
2019-05-11T06:29:03.077Z,97.38
2019-05-11T06:30:03.505Z,96.56
2019-05-11T06:31:03.931Z,95.65
2019-05-11T06:32:04.363Z,95.12
2019-05-11T06:33:04.808Z,92.68
2019-05-11T06:34:05.238Z,85.68
2019-05-11T06:35:05.676Z,87.35
2019-05-11T06:36:06.134Z,85.33
2019-05-11T06:37:06.546Z,82.59
2019-05-11T06:38:07.034Z,80.61
2019-05-11T06:39:07.435Z,76.54
2019-05-11T06:40:07.860Z,74.85
2019-05-11T06:41:08.288Z,71.71
2019-05-11T06:42:08.744Z,71.00
2019-05-11T06:43:09.173Z,70.68
2019-05-11T06:44:09.611Z,67.90
2019-05-11T06:45:10.056Z,67.83
2019-05-11T06:46:10.514Z,66.42
2019-05-11T06:47:10.942Z,64.69
2019-05-11T06:48:11.378Z,62.90
2019-05-11T06:49:11.830Z,63.73
2019-05-11T06:50:12.312Z,62.16
2019-05-11T06:51:12.708Z,62.60
2019-05-11T06:52:13.158Z,59.33
2019-05-11T06:53:13.595Z,58.37
2019-05-11T06:54:14.047Z,59.01
2019-05-11T06:55:14.484Z,59.94
2019-05-11T06:56:14.921Z,59.82
2019-05-11T06:57:15.376Z,62.16
2019-05-11T06:58:15.824Z,61.93
2019-05-11T06:59:16.259Z,60.23
2019-05-11T07:00:16.716Z,58.75
2019-05-11T07:01:17.153Z,55.15
2019-05-11T07:02:17.610Z,54.98
2019-05-11T07:03:18.064Z,53.56
2019-05-11T07:04:18.494Z,52.79
2019-05-11T07:05:18.953Z,52.52
2019-05-11T07:06:19.389Z,54.64
2019-05-11T07:07:19.846Z,55.24
2019-05-11T07:08:20.297Z,53.29
2019-05-11T07:09:20.743Z,54.16
2019-05-11T07:10:21.193Z,53.48
2019-05-11T07:11:21.636Z,54.38
2019-05-11T07:12:22.221Z,53.73
2019-05-11T07:13:22.565Z,53.36
2019-05-11T07:14:22.993Z,54.52
2019-05-11T07:15:23.449Z,53.65
2019-05-11T07:16:23.887Z,54.93
2019-05-11T07:17:24.355Z,54.30
2019-05-11T07:18:24.853Z,54.87
2019-05-11T07:19:25.243Z,55.49
2019-05-11T07:20:25.795Z,59.12
2019-05-11T07:21:26.144Z,58.40
2019-05-11T07:22:26.591Z,57.54
2019-05-11T07:23:27.034Z,58.28
2019-05-11T07:24:27.486Z,57.25
2019-05-11T07:25:27.957Z,56.87
2019-05-11T07:26:28.395Z,56.20
2019-05-11T07:27:28.839Z,55.30
2019-05-11T07:28:29.293Z,56.67
2019-05-11T07:29:29.741Z,55.68
2019-05-11T07:30:30.189Z,56.33
2019-05-11T07:31:30.642Z,58.18
2019-05-11T07:32:31.102Z,57.03
2019-05-11T07:33:31.547Z,56.87
2019-05-11T07:34:31.998Z,55.52
2019-05-11T07:35:32.443Z,55.23
2019-05-11T07:36:32.890Z,54.10
2019-05-11T07:37:33.346Z,54.49
2019-05-11T07:38:33.797Z,52.59
2019-05-11T07:39:34.243Z,51.89
2019-05-11T07:40:34.713Z,53.21
2019-05-11T07:41:35.154Z,55.68
2019-05-11T07:42:37.694Z,56.55
2019-05-11T07:43:37.996Z,55.90
2019-05-11T07:44:41.038Z,54.27
2019-05-11T07:45:38.709Z,53.72
2019-05-11T07:46:37.779Z,53.07
2019-05-11T07:47:38.137Z,52.47
2019-05-11T07:48:38.869Z,54.13
2019-05-11T07:49:38.782Z,51.84
2019-05-11T07:50:39.233Z,51.82
2019-05-11T07:51:39.676Z,52.16
2019-05-11T07:52:40.142Z,50.45
2019-05-11T07:53:40.589Z,49.94
2019-05-11T07:54:41.055Z,50.13
2019-05-11T07:55:41.512Z,51.44
2019-05-11T07:56:41.960Z,48.93
2019-05-11T07:57:42.437Z,47.70
2019-05-11T07:58:42.868Z,50.40
2019-05-11T07:59:43.327Z,49.32
2019-05-11T08:00:43.781Z,48.95
2019-05-11T08:01:44.239Z,48.40
2019-05-11T08:02:44.703Z,50.16
2019-05-11T08:03:45.199Z,47.58
2019-05-11T08:04:48.008Z,48.11
2019-05-11T08:05:47.882Z,47.65
2019-05-11T08:06:47.913Z,47.19
2019-05-11T08:07:48.114Z,47.63
2019-05-11T08:08:49.019Z,45.00
2019-05-11T08:09:48.454Z,45.21
2019-05-11T08:10:48.485Z,45.83
2019-05-11T08:11:48.814Z,43.54
2019-05-11T08:12:49.278Z,43.72
2019-05-11T08:13:49.733Z,46.25
2019-05-11T08:15:00.833Z,44.22
2019-05-11T08:15:50.662Z,44.05
2019-05-11T08:16:51.107Z,44.56
2019-05-11T08:17:51.596Z,43.51
2019-05-11T08:18:52.018Z,42.77
2019-05-11T08:19:52.482Z,44.29
2019-05-11T08:20:52.941Z,46.06
2019-05-11T08:21:53.401Z,46.13
2019-05-11T08:22:53.850Z,46.49
2019-05-11T08:23:54.362Z,44.03
2019-05-11T08:24:54.775Z,43.10
2019-05-11T08:25:57.878Z,43.57
2019-05-11T08:26:58.043Z,44.70
2019-05-11T08:27:58.650Z,43.95
2019-05-11T08:28:57.903Z,43.30
2019-05-11T08:29:58.005Z,42.57
2019-05-11T08:30:58.045Z,41.06
2019-05-11T08:31:58.167Z,39.80
2019-05-11T08:32:58.475Z,39.59
2019-05-11T08:33:58.914Z,39.78
2019-05-11T08:34:59.377Z,39.86
2019-05-11T08:35:59.828Z,41.52
2019-05-11T08:37:00.312Z,40.21
2019-05-11T08:38:00.755Z,37.81
2019-05-11T08:39:01.213Z,38.46
2019-05-11T08:40:01.673Z,42.25
2019-05-11T08:41:02.135Z,42.80
2019-05-11T08:42:03.312Z,43.12
2019-05-11T08:43:03.065Z,42.29
2019-05-11T08:44:03.522Z,42.25
2019-05-11T08:45:15.812Z,42.52
2019-05-11T08:46:04.442Z,43.12
2019-05-11T08:47:04.892Z,43.04
2019-05-11T08:48:05.353Z,45.34
2019-05-11T08:49:05.820Z,45.51
2019-05-11T08:50:08.065Z,42.52
2019-05-11T08:51:08.414Z,40.17
2019-05-11T08:52:08.146Z,39.80
2019-05-11T08:53:08.615Z,40.26
2019-05-11T08:54:08.923Z,38.62
2019-05-11T08:55:08.618Z,37.77
2019-05-11T08:56:13.031Z,37.88
2019-05-11T08:57:09.489Z,36.62
2019-05-11T08:58:09.940Z,36.99
2019-05-11T08:59:10.410Z,36.33
2019-05-11T09:00:10.863Z,35.92
2019-05-11T09:01:11.321Z,35.31
2019-05-11T09:02:11.787Z,32.57
2019-05-11T09:03:12.294Z,32.41
2019-05-11T09:04:12.711Z,34.64
2019-05-11T09:05:13.172Z,33.91
2019-05-11T09:06:13.635Z,35.56
2019-05-11T09:07:14.095Z,36.63
2019-05-11T09:08:14.555Z,39.01
2019-05-11T09:09:15.017Z,39.04
2019-05-11T09:10:15.473Z,38.46
2019-05-11T09:11:15.954Z,39.28
2019-05-11T09:12:18.338Z,36.86
2019-05-11T09:13:18.528Z,37.70
2019-05-11T09:14:18.815Z,39.26
2019-05-11T09:15:32.743Z,37.73
2019-05-11T09:16:18.954Z,38.16
2019-05-11T09:17:18.690Z,39.59
2019-05-11T09:18:19.147Z,40.42
2019-05-11T09:19:19.619Z,42.03
2019-05-11T09:20:20.060Z,42.86
2019-05-11T09:21:20.512Z,43.71
2019-05-11T09:22:20.969Z,44.69
2019-05-11T09:23:33.523Z,44.49
2019-05-11T09:24:21.875Z,44.11
2019-05-11T09:25:22.333Z,44.93
2019-05-11T09:26:22.785Z,46.45
2019-05-11T09:27:23.303Z,47.10
2019-05-11T09:28:23.687Z,47.39
2019-05-11T09:29:24.145Z,47.97
2019-05-11T09:30:24.578Z,48.16
2019-05-11T09:31:25.032Z,48.07
2019-05-11T09:32:25.474Z,48.28
2019-05-11T09:33:28.163Z,47.97
2019-05-11T09:34:28.637Z,48.35
2019-05-11T09:35:29.025Z,48.64
2019-05-11T09:36:28.543Z,47.89
2019-05-11T09:37:27.907Z,47.34
2019-05-11T09:38:28.157Z,47.19
2019-05-11T09:39:28.664Z,45.29
2019-05-11T09:40:29.053Z,44.73
2019-05-11T09:41:29.523Z,43.29
2019-05-11T09:42:29.943Z,43.17
2019-05-11T09:43:30.400Z,43.63
2019-05-11T09:44:30.839Z,44.65
2019-05-11T09:45:44.803Z,45.83
2019-05-11T09:46:31.737Z,47.03
2019-05-11T09:47:32.195Z,46.69
2019-05-11T09:48:32.627Z,46.04
2019-05-11T09:49:44.013Z,45.65
2019-05-11T09:50:33.524Z,46.28
2019-05-11T09:51:33.980Z,45.83
2019-05-11T09:52:34.422Z,45.73
2019-05-11T09:53:34.872Z,45.90
2019-05-11T09:54:35.316Z,46.38
2019-05-11T09:55:35.757Z,46.84
2019-05-11T09:56:38.200Z,47.77
2019-05-11T09:57:38.194Z,48.18
2019-05-11T09:58:38.702Z,47.99
2019-05-11T09:59:38.459Z,48.08
2019-05-11T10:00:38.849Z,47.99
2019-05-11T10:01:38.431Z,48.16
2019-05-11T10:02:38.911Z,48.33
2019-05-11T10:03:39.323Z,49.57
2019-05-11T10:04:39.762Z,49.57
2019-05-11T10:05:40.203Z,49.67
2019-05-11T10:06:40.639Z,49.87
2019-05-11T10:07:41.095Z,49.96
2019-05-11T10:08:41.530Z,49.48
2019-05-11T10:09:41.969Z,50.51
2019-05-11T10:10:42.411Z,51.09
2019-05-11T10:11:42.866Z,51.54
2019-05-11T10:12:43.299Z,52.14
2019-05-11T10:13:43.745Z,52.24
2019-05-11T10:14:44.179Z,51.57
2019-05-11T10:15:59.287Z,52.79
2019-05-11T10:16:45.062Z,52.24
2019-05-11T10:17:45.514Z,52.17
2019-05-11T10:18:45.955Z,51.40
2019-05-11T10:19:47.524Z,51.11
2019-05-11T10:20:48.138Z,50.37
2019-05-11T10:21:48.716Z,50.15
2019-05-11T10:22:48.624Z,50.25
2019-05-11T10:23:48.894Z,50.85
2019-05-11T10:24:48.610Z,50.54
2019-05-11T10:25:49.039Z,51.40
2019-05-11T10:26:49.501Z,52.24
2019-05-11T10:27:49.932Z,52.98
2019-05-11T10:28:50.364Z,53.17
2019-05-11T10:29:50.814Z,53.17
2019-05-11T10:30:51.251Z,53.27
2019-05-11T10:31:51.692Z,52.79
2019-05-11T10:32:52.132Z,53.11
2019-05-11T10:33:52.605Z,52.91
2019-05-11T10:34:53.040Z,52.91
2019-05-11T10:35:53.460Z,53.20
2019-05-11T10:36:53.891Z,53.30
2019-05-11T10:37:54.334Z,52.91
2019-05-11T10:38:54.806Z,53.58
2019-05-11T10:39:57.188Z,53.75
2019-05-11T10:40:57.997Z,53.49
2019-05-11T10:41:58.266Z,53.66
2019-05-11T10:42:58.758Z,53.85
2019-05-11T10:43:58.071Z,54.23
2019-05-11T10:44:58.305Z,54.90
2019-05-11T10:45:58.743Z,55.10
2019-05-11T10:46:59.044Z,54.42
2019-05-11T10:48:01.157Z,54.61
2019-05-11T10:48:59.178Z,55.19
2019-05-11T10:49:59.611Z,55.00
2019-05-11T10:51:00.049Z,54.71
2019-05-11T10:52:00.496Z,54.42
2019-05-11T10:53:00.927Z,55.10
2019-05-11T10:54:01.372Z,55.45
2019-05-11T10:55:01.811Z,55.96
2019-05-11T10:56:02.246Z,55.77
2019-05-11T10:57:02.692Z,56.22
2019-05-11T10:58:03.180Z,56.41
2019-05-11T10:59:03.573Z,56.53
2019-05-11T11:00:04.006Z,55.77
2019-05-11T11:01:04.451Z,55.00
2019-05-11T11:02:04.880Z,54.25
2019-05-11T11:03:05.333Z,53.94
2019-05-11T11:04:07.866Z,54.71
2019-05-11T11:05:08.123Z,55.10
2019-05-11T11:06:08.460Z,54.64
2019-05-11T11:07:07.706Z,54.90
2019-05-11T11:08:08.284Z,55.12
2019-05-11T11:09:08.331Z,55.22
2019-05-11T11:10:08.972Z,55.22
2019-05-11T11:11:08.837Z,55.86
2019-05-11T11:12:09.294Z,55.32
2019-05-11T11:13:09.722Z,54.74
2019-05-11T11:14:10.155Z,55.00
2019-05-11T11:15:10.602Z,55.12
2019-05-11T11:16:11.040Z,54.93
2019-05-11T11:17:11.477Z,54.35
2019-05-11T11:18:11.961Z,54.83
2019-05-11T11:19:12.366Z,55.22
2019-05-11T11:20:12.793Z,54.47
2019-05-11T11:21:13.250Z,54.38
2019-05-11T11:22:33.292Z,54.25
2019-05-11T11:23:14.175Z,54.57
2019-05-11T11:24:14.589Z,53.52
2019-05-11T11:25:15.004Z,53.42
2019-05-11T11:26:15.436Z,53.61
2019-05-11T11:27:15.876Z,54.28
2019-05-11T11:28:17.548Z,54.09
2019-05-11T11:29:17.888Z,54.28
2019-05-11T11:30:18.112Z,54.00
2019-05-11T11:31:18.636Z,53.87
2019-05-11T11:32:18.459Z,55.02
2019-05-11T11:33:18.543Z,55.79
2019-05-11T11:34:19.038Z,55.69
2019-05-11T11:35:19.397Z,54.96
2019-05-11T11:36:19.891Z,54.57
2019-05-11T11:37:20.289Z,54.67
2019-05-11T11:38:20.895Z,54.38
2019-05-11T11:39:21.156Z,54.47
2019-05-11T11:40:21.602Z,54.28
2019-05-11T11:41:22.042Z,55.15
2019-05-11T11:42:22.489Z,54.09
2019-05-11T11:43:22.984Z,54.47
2019-05-11T11:44:23.370Z,55.86
2019-05-11T11:45:23.804Z,56.18
2019-05-11T11:46:24.240Z,56.18
2019-05-11T11:47:24.737Z,56.49
2019-05-11T11:48:25.130Z,54.38
2019-05-11T11:49:28.071Z,54.38
2019-05-11T11:50:28.189Z,55.99
2019-05-11T11:51:28.068Z,56.53
2019-05-11T11:52:27.726Z,56.53
2019-05-11T11:53:27.948Z,56.18
2019-05-11T11:54:28.756Z,56.53
2019-05-11T11:55:28.987Z,56.53
2019-05-11T11:56:28.652Z,56.53
2019-05-11T11:57:29.082Z,56.73
2019-05-11T11:58:29.529Z,57.30
2019-05-11T11:59:29.965Z,56.73
2019-05-11T12:00:30.405Z,57.21
2019-05-11T12:01:30.853Z,57.50
2019-05-11T12:02:31.290Z,57.65
2019-05-11T12:03:31.730Z,58.52
2019-05-11T12:04:32.169Z,57.59
2019-05-11T12:05:32.611Z,56.66
2019-05-11T12:06:33.096Z,56.63
2019-05-11T12:07:33.481Z,57.11
2019-05-11T12:08:33.924Z,57.68
2019-05-11T12:09:34.364Z,57.95
2019-05-11T12:10:34.818Z,59.00
2019-05-11T12:11:35.252Z,58.71
2019-05-11T12:12:35.693Z,58.91
2019-05-11T12:13:38.198Z,58.71
2019-05-11T12:14:38.453Z,59.19
2019-05-11T12:15:38.767Z,59.48
2019-05-11T12:16:38.784Z,59.67
2019-05-11T12:17:37.907Z,59.67
2019-05-11T12:18:38.323Z,59.86
2019-05-11T12:19:38.751Z,59.16
2019-05-11T12:20:39.192Z,59.86
2019-05-11T12:21:39.631Z,59.29
2019-05-11T12:22:40.667Z,59.77
2019-05-11T12:23:40.512Z,59.32
2019-05-11T12:24:40.956Z,59.29
2019-05-11T12:25:41.381Z,59.19
2019-05-11T12:26:41.858Z,59.58
2019-05-11T12:27:42.268Z,59.48
2019-05-11T12:28:42.697Z,59.67
2019-05-11T12:29:43.131Z,59.80
2019-05-11T12:30:43.575Z,59.80
2019-05-11T12:31:44.013Z,59.89
2019-05-11T12:32:44.450Z,60.38
2019-05-11T12:33:44.953Z,59.99
2019-05-11T12:34:45.391Z,60.57
2019-05-11T12:35:48.001Z,61.14
2019-05-11T12:36:47.951Z,60.28
2019-05-11T12:37:48.447Z,60.18
2019-05-11T12:38:48.870Z,60.82
2019-05-11T12:39:47.935Z,60.85
2019-05-11T12:40:47.957Z,61.40
2019-05-11T12:41:48.402Z,61.49
2019-05-11T12:42:49.199Z,61.88
2019-05-11T12:43:49.260Z,62.07
2019-05-11T12:44:49.714Z,62.55
2019-05-11T12:45:50.140Z,62.68
2019-05-11T12:46:50.626Z,61.78
2019-05-11T12:47:51.020Z,63.03
2019-05-11T12:48:51.456Z,63.42
2019-05-11T12:49:51.957Z,63.51
2019-05-11T12:50:52.367Z,64.53
2019-05-11T12:51:52.766Z,63.76
2019-05-11T12:52:55.927Z,64.53
2019-05-11T12:53:53.648Z,64.92
2019-05-11T12:54:54.089Z,65.20
2019-05-11T12:55:54.591Z,65.68
2019-05-11T12:56:54.958Z,65.94
2019-05-11T12:57:57.827Z,66.83